Time;durP1;ratioP1;P1;durP2;ratioP2;P2;SDS_P1;SDS_P2;PMS_P1;PMS_P2;Temp;Humidity;BMP_temperature;BMP_pressure;BME280_temperature;BME280_humidity;BME280_pressure;Samples;Min_cycle;Max_cycle;Signal;HPM_P1;HPM_P2
2023/06/05 00:01:10;;;;;;;8.55;3.03;;;;;;;;;;5003913;28;20037;-44
2023/06/05 00:03:44;;;;;;;6.97;2.40;;;;;;;;;;5016309;28;20037;-45
2023/06/05 00:06:15;;;;;;;7.47;2.80;;;;;;;;;;5019509;28;20599;-46
2023/06/05 00:08:43;;;;;;;5.97;2.93;;;;;;;;;;5003661;28;20043;-47
2023/06/05 00:11:10;;;;;;;8.07;2.95;;;;;;;;;;5026771;28;20526;-46
2023/06/05 00:13:38;;;;;;;6.60;2.40;;;;;;;;;;5014305;28;20041;-45
2023/06/05 00:16:07;;;;;;;7.28;3.00;;;;;;;;;;5018501;28;20042;-44
2023/06/05 00:18:35;;;;;;;8.15;2.90;;;;;;;;;;5005959;28;20745;-44
2023/06/05 00:21:03;;;;;;;7.30;2.37;;;;;;;;;;5018676;28;20037;-48
2023/06/05 00:23:31;;;;;;;8.10;3.00;;;;;;;;;;5018896;28;20041;-47
2023/06/05 00:25:59;;;;;;;6.90;2.83;;;;;;;;;;5020090;28;20045;-45
2023/06/05 00:28:27;;;;;;;7.95;3.05;;;;;;;;;;5022347;28;20025;-45
2023/06/05 00:30:54;;;;;;;7.47;2.75;;;;;;;;;;5013645;28;20033;-43
2023/06/05 00:33:24;;;;;;;7.13;3.10;;;;;;;;;;5014505;28;20087;-48
2023/06/05 00:35:51;;;;;;;7.30;3.33;;;;;;;;;;5006909;28;20069;-45
2023/06/05 00:38:20;;;;;;;7.32;2.90;;;;;;;;;;5024584;28;20044;-44
2023/06/05 00:40:48;;;;;;;7.55;2.80;;;;;;;;;;5007125;28;20245;-44
2023/06/05 00:43:16;;;;;;;7.00;3.00;;;;;;;;;;5027971;28;20480;-44
2023/06/05 00:45:46;;;;;;;8.70;3.10;;;;;;;;;;5015826;28;20510;-44
2023/06/05 00:48:14;;;;;;;7.45;2.80;;;;;;;;;;5013457;28;20033;-44
2023/06/05 00:50:43;;;;;;;10.10;3.05;;;;;;;;;;5014324;28;20045;-46
2023/06/05 00:53:11;;;;;;;6.93;3.20;;;;;;;;;;5016531;28;20139;-46
2023/06/05 00:55:40;;;;;;;7.72;3.10;;;;;;;;;;5009744;28;20128;-47
2023/06/05 00:58:11;;;;;;;9.27;2.93;;;;;;;;;;5017650;28;20761;-44
2023/06/05 01:00:39;;;;;;;9.38;3.10;;;;;;;;;;5014792;28;20053;-45
2023/06/05 01:03:08;;;;;;;9.73;2.85;;;;;;;;;;5018540;28;20059;-47
2023/06/05 01:05:37;;;;;;;7.68;3.22;;;;;;;;;;5004187;28;20117;-46
2023/06/05 01:08:09;;;;;;;7.63;2.90;;;;;;;;;;5018454;28;20052;-47
2023/06/05 01:10:36;;;;;;;8.53;2.70;;;;;;;;;;5017393;28;20141;-47
2023/06/05 01:13:07;;;;;;;8.75;3.33;;;;;;;;;;5019968;28;20037;-45
2023/06/05 01:15:36;;;;;;;9.93;3.17;;;;;;;;;;5005983;28;20047;-45
2023/06/05 01:18:05;;;;;;;8.05;2.80;;;;;;;;;;5020072;28;20128;-47
2023/06/05 01:20:33;;;;;;;7.90;3.13;;;;;;;;;;4993962;28;20037;-44
2023/06/05 01:23:02;;;;;;;10.10;3.80;;;;;;;;;;5034306;28;20476;-46
2023/06/05 01:25:37;;;;;;;12.55;4.03;;;;;;;;;;5020388;28;20315;-47
2023/06/05 01:28:08;;;;;;;9.18;3.67;;;;;;;;;;5008198;28;20046;-44
2023/06/05 01:30:40;;;;;;;9.43;2.97;;;;;;;;;;5012585;28;20033;-50
2023/06/05 01:33:12;;;;;;;8.93;3.42;;;;;;;;;;5023797;28;20056;-45
2023/06/05 01:35:41;;;;;;;11.20;3.63;;;;;;;;;;5010140;28;20049;-47
2023/06/05 01:38:11;;;;;;;8.43;3.25;;;;;;;;;;5017516;28;20128;-49
2023/06/05 01:40:39;;;;;;;9.20;3.35;;;;;;;;;;5026960;28;20053;-48
2023/06/05 01:43:09;;;;;;;8.35;3.20;;;;;;;;;;5026841;28;20029;-46
2023/06/05 01:45:40;;;;;;;9.57;3.30;;;;;;;;;;5018566;28;20067;-46
2023/06/05 01:48:10;;;;;;;8.07;3.63;;;;;;;;;;4989632;28;20048;-45
2023/06/05 01:50:38;;;;;;;10.02;3.80;;;;;;;;;;5019822;28;20041;-45
2023/06/05 01:53:07;;;;;;;9.25;4.05;;;;;;;;;;5007668;28;20037;-49
2023/06/05 01:55:39;;;;;;;8.48;3.47;;;;;;;;;;5002347;28;20045;-46
2023/06/05 01:58:06;;;;;;;9.50;3.90;;;;;;;;;;5013882;28;20234;-47
2023/06/05 02:00:35;;;;;;;10.77;3.87;;;;;;;;;;5027541;28;20048;-44
2023/06/05 02:03:03;;;;;;;8.65;3.47;;;;;;;;;;5024884;28;20144;-45
2023/06/05 02:05:33;;;;;;;9.07;3.47;;;;;;;;;;5006827;28;20401;-45
2023/06/05 02:08:05;;;;;;;8.88;3.97;;;;;;;;;;5022286;28;20098;-45
2023/06/05 02:10:33;;;;;;;8.77;3.88;;;;;;;;;;5009261;28;20037;-44
2023/06/05 02:13:02;;;;;;;9.03;4.20;;;;;;;;;;5023262;28;20041;-44
2023/06/05 02:15:31;;;;;;;11.45;4.00;;;;;;;;;;5007604;28;20044;-46
2023/06/05 02:18:00;;;;;;;13.35;4.43;;;;;;;;;;4994831;28;20049;-48
2023/06/05 02:20:28;;;;;;;10.38;4.03;;;;;;;;;;5020579;28;20053;-46
2023/06/05 02:22:57;;;;;;;11.93;4.80;;;;;;;;;;5022634;28;20526;-46
2023/06/05 02:25:26;;;;;;;9.20;4.13;;;;;;;;;;5021151;28;20045;-45
2023/06/05 02:27:54;;;;;;;9.10;4.13;;;;;;;;;;5012152;28;20125;-44
2023/06/05 02:30:23;;;;;;;8.90;4.18;;;;;;;;;;5021665;28;20044;-48
2023/06/05 02:33:00;;;;;;;10.23;4.25;;;;;;;;;;5024456;28;20499;-47
2023/06/05 02:35:29;;;;;;;9.73;4.25;;;;;;;;;;5007111;28;20037;-47
2023/06/05 02:37:57;;;;;;;13.63;5.10;;;;;;;;;;5018159;28;20037;-47
2023/06/05 02:40:25;;;;;;;11.30;4.40;;;;;;;;;;5018656;28;20306;-45
2023/06/05 02:42:54;;;;;;;9.57;4.30;;;;;;;;;;4958668;28;20037;-46
2023/06/05 02:45:23;;;;;;;11.30;4.30;;;;;;;;;;5026301;28;20044;-44
2023/06/05 02:47:50;;;;;;;9.68;4.03;;;;;;;;;;5023739;28;20459;-45
2023/06/05 02:50:19;;;;;;;9.90;4.30;;;;;;;;;;5022253;28;20036;-46
2023/06/05 02:52:48;;;;;;;10.68;4.38;;;;;;;;;;5019816;28;20136;-46
2023/06/05 02:55:16;;;;;;;10.70;4.80;;;;;;;;;;5011418;28;20132;-47
2023/06/05 02:57:44;;;;;;;11.15;4.95;;;;;;;;;;5018505;28;20510;-43
2023/06/05 03:00:15;;;;;;;12.02;4.93;;;;;;;;;;5022300;28;20223;-46
2023/06/05 03:02:48;;;;;;;10.90;5.00;;;;;;;;;;5008818;28;20037;-43
2023/06/05 03:05:24;;;;;;;11.43;4.50;;;;;;;;;;5008791;28;20044;-44
2023/06/05 03:07:56;;;;;;;13.85;4.80;;;;;;;;;;5020227;28;20072;-43
2023/06/05 03:10:24;;;;;;;10.77;4.45;;;;;;;;;;5027964;28;20390;-47
2023/06/05 03:12:51;;;;;;;12.57;5.28;;;;;;;;;;5028098;28;20045;-44
2023/06/05 03:15:19;;;;;;;12.83;4.57;;;;;;;;;;5026324;28;20055;-44
2023/06/05 03:17:49;;;;;;;11.65;4.93;;;;;;;;;;5016049;28;20045;-44
2023/06/05 03:20:19;;;;;;;12.43;4.70;;;;;;;;;;5020937;28;20040;-44
2023/06/05 03:22:46;;;;;;;12.40;4.95;;;;;;;;;;5011075;28;20036;-46
2023/06/05 03:25:14;;;;;;;10.57;4.53;;;;;;;;;;5022760;28;20063;-45
2023/06/05 03:27:42;;;;;;;12.83;5.23;;;;;;;;;;5010374;28;20487;-45
2023/06/05 03:30:11;;;;;;;9.40;4.25;;;;;;;;;;5020141;28;20037;-44
2023/06/05 03:32:40;;;;;;;14.52;4.80;;;;;;;;;;4998603;28;20159;-45
2023/06/05 03:35:09;;;;;;;13.52;4.75;;;;;;;;;;5021759;28;20083;-44
2023/06/05 03:37:37;;;;;;;11.13;5.43;;;;;;;;;;5014552;28;22066;-44
2023/06/05 03:40:05;;;;;;;8.87;4.97;;;;;;;;;;5024054;28;20045;-45
2023/06/05 03:42:33;;;;;;;12.30;5.53;;;;;;;;;;5006641;28;20126;-44
2023/06/05 03:45:01;;;;;;;10.90;4.97;;;;;;;;;;5020692;28;20049;-45
2023/06/05 03:47:29;;;;;;;12.50;6.10;;;;;;;;;;4990895;28;20045;-43
2023/06/05 03:49:56;;;;;;;16.33;5.97;;;;;;;;;;5023490;28;20037;-44
2023/06/05 03:52:25;;;;;;;12.27;6.30;;;;;;;;;;5020263;28;20556;-43
2023/06/05 03:54:55;;;;;;;13.85;6.30;;;;;;;;;;5012923;28;20048;-46
2023/06/05 03:57:23;;;;;;;12.27;6.18;;;;;;;;;;5024361;28;20502;-44
2023/06/05 03:59:50;;;;;;;14.25;6.18;;;;;;;;;;5012310;28;20557;-45
2023/06/05 04:02:18;;;;;;;10.57;6.15;;;;;;;;;;5019204;28;20209;-45
2023/06/05 04:04:50;;;;;;;11.73;6.27;;;;;;;;;;5023078;28;20044;-45
2023/06/05 04:07:18;;;;;;;12.18;5.78;;;;;;;;;;5013447;28;20108;-47
2023/06/05 04:09:47;;;;;;;11.07;5.70;;;;;;;;;;4979050;28;20049;-45
2023/06/05 04:12:16;;;;;;;11.10;5.55;;;;;;;;;;5028992;28;20059;-44
2023/06/05 04:14:45;;;;;;;11.27;5.03;;;;;;;;;;5003402;28;20038;-48
2023/06/05 04:17:13;;;;;;;12.20;5.50;;;;;;;;;;5017289;28;20045;-44
2023/06/05 04:19:41;;;;;;;12.77;5.25;;;;;;;;;;5011598;28;20368;-46
2023/06/05 04:22:09;;;;;;;12.82;5.20;;;;;;;;;;5022984;28;20061;-44
2023/06/05 04:24:38;;;;;;;11.65;4.78;;;;;;;;;;5013803;28;20211;-46
2023/06/05 04:27:08;;;;;;;10.85;4.88;;;;;;;;;;5010661;28;20037;-47
2023/06/05 04:29:36;;;;;;;10.57;4.77;;;;;;;;;;5008553;28;20805;-47
2023/06/05 04:32:04;;;;;;;10.55;5.07;;;;;;;;;;5027268;28;20041;-44
2023/06/05 04:34:32;;;;;;;8.98;4.25;;;;;;;;;;5011632;28;20045;-46
2023/06/05 04:37:01;;;;;;;11.70;4.45;;;;;;;;;;5015150;28;20120;-43
2023/06/05 04:39:29;;;;;;;9.20;4.00;;;;;;;;;;5013165;28;20056;-45
2023/06/05 04:41:57;;;;;;;12.30;4.10;;;;;;;;;;5021190;28;20068;-44
2023/06/05 04:44:31;;;;;;;11.07;4.35;;;;;;;;;;5012903;28;20067;-45
2023/06/05 04:47:01;;;;;;;9.75;4.60;;;;;;;;;;5015679;28;20055;-45
2023/06/05 04:49:30;;;;;;;13.50;4.25;;;;;;;;;;5013792;28;20060;-45
2023/06/05 04:51:59;;;;;;;10.95;4.30;;;;;;;;;;5011360;28;20044;-46
2023/06/05 04:54:26;;;;;;;9.63;3.80;;;;;;;;;;5013716;28;20038;-44
2023/06/05 04:56:54;;;;;;;9.77;4.03;;;;;;;;;;5013651;28;20124;-45
2023/06/05 04:59:22;;;;;;;11.95;4.28;;;;;;;;;;4996472;28;20673;-43
2023/06/05 05:01:51;;;;;;;9.05;4.22;;;;;;;;;;5024292;28;21646;-44
2023/06/05 05:04:20;;;;;;;9.50;4.22;;;;;;;;;;5008058;28;20590;-47
2023/06/05 05:06:51;;;;;;;14.60;4.33;;;;;;;;;;5011762;28;20095;-46
2023/06/05 05:09:19;;;;;;;11.25;4.78;;;;;;;;;;5012911;28;20094;-45
2023/06/05 05:11:47;;;;;;;9.07;4.18;;;;;;;;;;5026072;28;20045;-46
2023/06/05 05:14:15;;;;;;;9.23;3.55;;;;;;;;;;5009760;28;20074;-45
2023/06/05 05:16:42;;;;;;;8.20;3.70;;;;;;;;;;5005135;28;20406;-44
2023/06/05 05:19:12;;;;;;;11.03;3.97;;;;;;;;;;5002731;28;20033;-46
2023/06/05 05:21:40;;;;;;;11.32;3.72;;;;;;;;;;5006898;28;20072;-45
2023/06/05 05:24:08;;;;;;;10.75;3.70;;;;;;;;;;5003197;28;20049;-45
2023/06/05 05:26:36;;;;;;;13.30;4.45;;;;;;;;;;5027133;28;20130;-46
2023/06/05 05:29:04;;;;;;;10.10;4.00;;;;;;;;;;5031901;28;20052;-44
2023/06/05 05:31:32;;;;;;;8.47;3.93;;;;;;;;;;5014066;28;20055;-49
2023/06/05 05:33:59;;;;;;;9.70;3.88;;;;;;;;;;5021550;28;20037;-46
2023/06/05 05:36:33;;;;;;;8.73;3.90;;;;;;;;;;5018895;28;20037;-46
2023/06/05 05:39:01;;;;;;;10.25;4.00;;;;;;;;;;5019025;28;20042;-50
2023/06/05 05:41:28;;;;;;;9.45;3.75;;;;;;;;;;5010583;28;20045;-46
2023/06/05 05:43:56;;;;;;;10.77;3.77;;;;;;;;;;5010664;28;20041;-46
2023/06/05 05:46:24;;;;;;;10.30;4.07;;;;;;;;;;5019496;28;20041;-48
2023/06/05 05:48:54;;;;;;;7.82;3.50;;;;;;;;;;4993176;28;20048;-45
2023/06/05 05:51:22;;;;;;;9.43;4.40;;;;;;;;;;5030472;28;20037;-46
2023/06/05 05:53:51;;;;;;;10.55;3.60;;;;;;;;;;5018426;28;20060;-46
2023/06/05 05:56:19;;;;;;;10.80;3.93;;;;;;;;;;5009820;28;20514;-46
2023/06/05 05:58:47;;;;;;;9.20;3.47;;;;;;;;;;5029345;28;20045;-47
2023/06/05 06:01:15;;;;;;;8.07;3.60;;;;;;;;;;5002687;28;20099;-46
2023/06/05 06:03:43;;;;;;;8.70;3.80;;;;;;;;;;5015564;28;20114;-45
2023/06/05 06:06:12;;;;;;;10.20;3.72;;;;;;;;;;5002648;28;20087;-44
2023/06/05 06:08:40;;;;;;;9.47;3.50;;;;;;;;;;5017635;28;20055;-44
2023/06/05 06:11:09;;;;;;;10.25;3.58;;;;;;;;;;5004401;28;20045;-46
2023/06/05 06:13:37;;;;;;;8.73;3.75;;;;;;;;;;5020388;28;20517;-45
2023/06/05 06:16:05;;;;;;;8.57;3.42;;;;;;;;;;5007827;28;20571;-46
2023/06/05 06:18:36;;;;;;;9.13;3.58;;;;;;;;;;5015245;28;20117;-45
2023/06/05 06:21:04;;;;;;;10.13;3.60;;;;;;;;;;5013123;28;20488;-47
2023/06/05 06:23:32;;;;;;;11.77;3.88;;;;;;;;;;5016062;28;20144;-47
2023/06/05 06:26:00;;;;;;;8.32;3.58;;;;;;;;;;4993948;28;20042;-48
2023/06/05 06:28:30;;;;;;;9.35;3.88;;;;;;;;;;5016857;28;20177;-47
2023/06/05 06:30:57;;;;;;;12.70;3.80;;;;;;;;;;5002785;28;20033;-45
2023/06/05 06:33:25;;;;;;;10.60;4.03;;;;;;;;;;5016314;28;20452;-46
2023/06/05 06:35:53;;;;;;;8.38;3.47;;;;;;;;;;5018957;28;20533;-47
2023/06/05 06:38:21;;;;;;;8.80;3.17;;;;;;;;;;5004108;28;20414;-45
2023/06/05 06:40:48;;;;;;;9.25;3.78;;;;;;;;;;5011488;28;20423;-48
2023/06/05 06:43:16;;;;;;;9.70;3.22;;;;;;;;;;5016491;28;20056;-48
2023/06/05 06:45:45;;;;;;;7.47;3.47;;;;;;;;;;5017917;28;20045;-51
2023/06/05 06:48:13;;;;;;;10.52;3.85;;;;;;;;;;5015941;28;20075;-46
2023/06/05 06:50:41;;;;;;;9.05;3.88;;;;;;;;;;5016033;28;20045;-46
2023/06/05 06:53:09;;;;;;;8.25;3.30;;;;;;;;;;5013545;28;20029;-45
2023/06/05 06:55:37;;;;;;;9.73;3.70;;;;;;;;;;5022825;28;20051;-47
2023/06/05 06:58:05;;;;;;;11.33;3.90;;;;;;;;;;5006973;28;20041;-47
2023/06/05 07:00:33;;;;;;;10.65;3.72;;;;;;;;;;5022463;28;20038;-46
2023/06/05 07:03:02;;;;;;;9.73;3.33;;;;;;;;;;5017322;28;20049;-47
2023/06/05 07:05:31;;;;;;;8.95;2.95;;;;;;;;;;5002088;28;20050;-46
2023/06/05 07:08:00;;;;;;;11.60;3.85;;;;;;;;;;5009142;28;20056;-46
2023/06/05 07:10:29;;;;;;;9.13;3.40;;;;;;;;;;5020974;28;20048;-45
2023/06/05 07:12:56;;;;;;;11.55;3.72;;;;;;;;;;5026059;28;20047;-46
2023/06/05 07:15:24;;;;;;;9.18;3.50;;;;;;;;;;4992838;28;20045;-45
2023/06/05 07:17:52;;;;;;;10.88;4.45;;;;;;;;;;5008654;28;20037;-46
2023/06/05 07:20:21;;;;;;;10.95;4.20;;;;;;;;;;5006443;28;20124;-45
2023/06/05 07:22:49;;;;;;;11.23;3.77;;;;;;;;;;5010552;28;20049;-45
2023/06/05 07:25:20;;;;;;;9.38;3.70;;;;;;;;;;5021309;28;20048;-47
2023/06/05 07:27:48;;;;;;;9.02;4.03;;;;;;;;;;5000286;28;20080;-48
2023/06/05 07:30:16;;;;;;;9.63;4.00;;;;;;;;;;5019586;28;20047;-45
2023/06/05 07:32:45;;;;;;;11.38;4.13;;;;;;;;;;5004335;28;20052;-46
2023/06/05 07:35:14;;;;;;;11.57;4.20;;;;;;;;;;5028780;28;20036;-47
2023/06/05 07:37:44;;;;;;;9.02;3.72;;;;;;;;;;5015549;28;20040;-46
2023/06/05 07:40:13;;;;;;;11.27;4.63;;;;;;;;;;5029662;28;20070;-46
2023/06/05 07:42:41;;;;;;;10.98;4.55;;;;;;;;;;4991307;28;20060;-46
2023/06/05 07:45:09;;;;;;;12.43;4.60;;;;;;;;;;5013493;28;20033;-48
2023/06/05 07:47:37;;;;;;;11.03;4.60;;;;;;;;;;5012931;28;20094;-48
2023/06/05 07:50:06;;;;;;;9.32;4.93;;;;;;;;;;5020370;28;20071;-47
2023/06/05 07:52:34;;;;;;;13.52;5.43;;;;;;;;;;5030216;28;20144;-46
2023/06/05 07:55:04;;;;;;;11.70;5.93;;;;;;;;;;4997200;28;20059;-48
2023/06/05 07:57:31;;;;;;;11.48;5.10;;;;;;;;;;4995567;28;20060;-48
2023/06/05 07:59:59;;;;;;;12.07;5.33;;;;;;;;;;5012135;28;20045;-45
2023/06/05 08:02:28;;;;;;;12.48;5.15;;;;;;;;;;5013777;28;20043;-47
2023/06/05 08:04:56;;;;;;;12.23;5.28;;;;;;;;;;5016717;28;20037;-49
2023/06/05 08:07:23;;;;;;;11.30;5.43;;;;;;;;;;5010315;28;20091;-47
2023/06/05 08:09:51;;;;;;;15.82;5.85;;;;;;;;;;5016543;28;20041;-50
2023/06/05 08:12:20;;;;;;;13.50;6.43;;;;;;;;;;5021006;28;20033;-46
2023/06/05 08:14:48;;;;;;;14.00;5.05;;;;;;;;;;5034798;28;20050;-48
2023/06/05 08:17:16;;;;;;;11.82;5.38;;;;;;;;;;5027682;28;20058;-45
2023/06/05 08:19:46;;;;;;;12.73;5.18;;;;;;;;;;5006092;28;20581;-46
2023/06/05 08:22:14;;;;;;;15.20;5.35;;;;;;;;;;5010111;28;20049;-45
2023/06/05 08:24:42;;;;;;;21.23;5.93;;;;;;;;;;5032156;28;20083;-47
2023/06/05 08:27:10;;;;;;;14.07;6.93;;;;;;;;;;4997505;28;20572;-45
2023/06/05 08:29:39;;;;;;;12.45;6.18;;;;;;;;;;5003553;28;20114;-45
2023/06/05 08:32:10;;;;;;;13.45;5.80;;;;;;;;;;5002091;28;20045;-47
2023/06/05 08:34:38;;;;;;;10.95;5.90;;;;;;;;;;4995449;28;20491;-49
2023/06/05 08:37:06;;;;;;;12.43;6.13;;;;;;;;;;5002313;28;20708;-48
2023/06/05 08:39:33;;;;;;;12.38;6.75;;;;;;;;;;4992560;28;20037;-46
2023/06/05 08:42:03;;;;;;;12.98;5.85;;;;;;;;;;4983118;28;20053;-47
2023/06/05 08:44:33;;;;;;;13.07;5.82;;;;;;;;;;5008064;28;20044;-45
2023/06/05 08:47:04;;;;;;;13.10;5.78;;;;;;;;;;4971939;28;20673;-47
2023/06/05 08:49:36;;;;;;;12.57;5.50;;;;;;;;;;4993627;28;20041;-47
2023/06/05 08:52:06;;;;;;;12.85;5.55;;;;;;;;;;5000337;28;20651;-46
2023/06/05 08:54:37;;;;;;;14.40;5.97;;;;;;;;;;4989569;28;20075;-50
2023/06/05 08:57:06;;;;;;;14.65;6.85;;;;;;;;;;5000412;28;20120;-50
2023/06/05 08:59:34;;;;;;;13.13;6.40;;;;;;;;;;5001675;28;20048;-49
2023/06/05 09:02:04;;;;;;;11.07;6.13;;;;;;;;;;5000322;28;20550;-46
2023/06/05 09:04:32;;;;;;;13.10;5.47;;;;;;;;;;5008223;28;20341;-48
2023/06/05 09:07:00;;;;;;;10.70;5.38;;;;;;;;;;4991473;28;20146;-47
2023/06/05 09:09:28;;;;;;;11.38;5.47;;;;;;;;;;4990713;28;20107;-47
2023/06/05 09:12:02;;;;;;;10.82;5.82;;;;;;;;;;4989340;28;20064;-51
2023/06/05 09:14:32;;;;;;;13.17;4.87;;;;;;;;;;5007138;28;20056;-46
2023/06/05 09:17:01;;;;;;;13.65;5.15;;;;;;;;;;4986251;28;20033;-47
2023/06/05 09:19:37;;;;;;;12.02;5.25;;;;;;;;;;5010870;28;20051;-46
2023/06/05 09:22:06;;;;;;;10.45;5.38;;;;;;;;;;4999922;28;20106;-45
2023/06/05 09:24:36;;;;;;;13.25;5.82;;;;;;;;;;5002814;28;20515;-45
2023/06/05 09:27:08;;;;;;;9.50;4.87;;;;;;;;;;4998821;28;20049;-48
2023/06/05 09:29:38;;;;;;;9.32;4.90;;;;;;;;;;4987863;28;20541;-46
2023/06/05 09:32:07;;;;;;;12.85;5.35;;;;;;;;;;5005866;28;20322;-49
2023/06/05 09:34:35;;;;;;;10.35;5.00;;;;;;;;;;4996555;28;20041;-45
2023/06/05 09:37:06;;;;;;;9.98;5.32;;;;;;;;;;4989851;28;20045;-47
2023/06/05 09:39:34;;;;;;;12.23;5.33;;;;;;;;;;4980819;28;20048;-45
2023/06/05 09:42:02;;;;;;;11.85;5.63;;;;;;;;;;5005300;28;20571;-47
2023/06/05 09:44:31;;;;;;;11.95;6.10;;;;;;;;;;4996332;28;20171;-46
2023/06/05 09:47:05;;;;;;;10.18;4.90;;;;;;;;;;4998582;28;20049;-47
2023/06/05 09:49:47;;;;;;;10.10;5.18;;;;;;;;;;5001707;28;20601;-48
2023/06/05 09:52:17;;;;;;;11.70;5.07;;;;;;;;;;5001813;28;20498;-47
2023/06/05 09:54:46;;;;;;;11.50;5.07;;;;;;;;;;5007876;28;20041;-46
2023/06/05 09:57:14;;;;;;;11.15;5.07;;;;;;;;;;4999236;28;20558;-49
2023/06/05 09:59:46;;;;;;;14.55;4.50;;;;;;;;;;4979655;28;20053;-45
2023/06/05 10:02:16;;;;;;;9.60;3.90;;;;;;;;;;4990305;28;20048;-47
2023/06/05 10:04:47;;;;;;;10.13;4.17;;;;;;;;;;5007318;28;20051;-47
2023/06/05 10:07:17;;;;;;;9.63;4.40;;;;;;;;;;4990852;28;20079;-47
2023/06/05 10:09:45;;;;;;;12.75;4.40;;;;;;;;;;4985239;28;20049;-47
2023/06/05 10:12:13;;;;;;;9.10;4.70;;;;;;;;;;5000517;28;20045;-48
2023/06/05 10:14:43;;;;;;;9.63;4.47;;;;;;;;;;4996043;28;20806;-45
2023/06/05 10:17:12;;;;;;;11.50;5.40;;;;;;;;;;5027651;28;20904;-50
2023/06/05 10:19:41;;;;;;;9.40;5.22;;;;;;;;;;5020680;28;20514;-43
2023/06/05 10:22:10;;;;;;;11.18;6.05;;;;;;;;;;5021561;28;20051;-46
2023/06/05 10:24:44;;;;;;;9.38;5.03;;;;;;;;;;5016669;28;20935;-44
2023/06/05 10:27:20;;;;;;;11.15;4.60;;;;;;;;;;5031451;28;20112;-46
2023/06/05 10:30:06;;;;;;;11.03;5.50;;;;;;;;;;5010896;28;20041;-45
2023/06/05 10:32:41;;;;;;;10.73;4.82;;;;;;;;;;5018096;28;20049;-47
2023/06/05 10:35:16;;;;;;;9.55;4.30;;;;;;;;;;5017577;28;20441;-44
2023/06/05 10:37:48;;;;;;;9.50;4.75;;;;;;;;;;5014668;28;20106;-44
2023/06/05 10:40:18;;;;;;;10.90;4.72;;;;;;;;;;5025334;28;20033;-45
2023/06/05 10:42:46;;;;;;;9.70;4.07;;;;;;;;;;5007618;28;20139;-44
2023/06/05 10:45:29;;;;;;;8.85;3.67;;;;;;;;;;5021670;28;20477;-45
2023/06/05 10:47:57;;;;;;;10.45;3.67;;;;;;;;;;5008235;28;20046;-47
2023/06/05 10:50:30;;;;;;;7.85;4.10;;;;;;;;;;5022028;28;20051;-47
2023/06/05 10:52:59;;;;;;;8.25;3.90;;;;;;;;;;5025288;28;20502;-48
2023/06/05 10:55:42;;;;;;;8.63;3.20;;;;;;;;;;5014795;28;20036;-47
2023/06/05 10:58:10;;;;;;;9.82;3.65;;;;;;;;;;5011748;28;20044;-48
2023/06/05 11:00:38;;;;;;;11.48;4.13;;;;;;;;;;5022267;28;20061;-46
2023/06/05 11:03:10;;;;;;;10.40;4.13;;;;;;;;;;5021193;28;20371;-48
2023/06/05 11:05:58;;;;;;;10.05;4.05;;;;;;;;;;5015048;28;20095;-46
2023/06/05 11:08:27;;;;;;;9.20;4.43;;;;;;;;;;5023209;28;20041;-47
2023/06/05 11:11:05;;;;;;;9.15;4.50;;;;;;;;;;5018280;28;20091;-44
2023/06/05 11:13:50;;;;;;;11.82;4.40;;;;;;;;;;5021239;28;21216;-47
2023/06/05 11:16:26;;;;;;;10.77;4.63;;;;;;;;;;5015233;28;20064;-44
2023/06/05 11:18:54;;;;;;;10.25;4.68;;;;;;;;;;4999280;28;20049;-44
2023/06/05 11:21:23;;;;;;;10.43;4.60;;;;;;;;;;5023758;28;20036;-43
2023/06/05 11:24:08;;;;;;;9.65;4.90;;;;;;;;;;5014152;28;20048;-45
2023/06/05 11:26:43;;;;;;;10.30;5.00;;;;;;;;;;5014265;28;20036;-45
2023/06/05 11:29:14;;;;;;;10.88;4.40;;;;;;;;;;5031953;28;20452;-47
2023/06/05 11:31:43;;;;;;;10.93;4.78;;;;;;;;;;5005366;28;20041;-45
2023/06/05 11:34:14;;;;;;;10.60;4.50;;;;;;;;;;5008784;28;20041;-46
2023/06/05 11:36:42;;;;;;;9.02;4.40;;;;;;;;;;5013357;28;20041;-46
2023/06/05 11:39:12;;;;;;;20.50;4.47;;;;;;;;;;5012705;28;20399;-48
2023/06/05 11:41:48;;;;;;;11.15;5.10;;;;;;;;;;5008612;28;20048;-45
2023/06/05 11:44:16;;;;;;;9.48;4.15;;;;;;;;;;5015540;28;20047;-45
2023/06/05 11:46:44;;;;;;;8.87;4.33;;;;;;;;;;5018253;28;20049;-43
2023/06/05 11:49:23;;;;;;;11.07;4.82;;;;;;;;;;4996833;28;20045;-45
2023/06/05 11:51:51;;;;;;;9.10;4.15;;;;;;;;;;5013159;28;20045;-47
2023/06/05 11:54:26;;;;;;;8.02;3.90;;;;;;;;;;5015640;28;20036;-45
2023/06/05 11:56:58;;;;;;;9.32;4.57;;;;;;;;;;5012686;28;20045;-44
2023/06/05 11:59:26;;;;;;;9.73;4.97;;;;;;;;;;5008583;28;20577;-46
2023/06/05 12:01:54;;;;;;;8.88;4.30;;;;;;;;;;4997634;28;20065;-44
2023/06/05 12:04:23;;;;;;;10.00;4.28;;;;;;;;;;5014632;28;20347;-46
2023/06/05 12:06:51;;;;;;;10.75;4.22;;;;;;;;;;5020409;28;20618;-47
2023/06/05 12:09:19;;;;;;;9.13;4.38;;;;;;;;;;5010078;28;20140;-46
2023/06/05 12:11:48;;;;;;;8.47;4.50;;;;;;;;;;5003321;28;20100;-45
2023/06/05 12:14:30;;;;;;;8.00;4.07;;;;;;;;;;5012956;28;20042;-45
2023/06/05 12:16:58;;;;;;;7.25;3.60;;;;;;;;;;4979655;28;20064;-45
2023/06/05 12:19:28;;;;;;;7.78;4.00;;;;;;;;;;5022075;28;20037;-49
2023/06/05 12:22:02;;;;;;;8.57;3.88;;;;;;;;;;5004425;28;20037;-44
2023/06/05 12:24:31;;;;;;;8.70;4.13;;;;;;;;;;5020442;28;20112;-45
2023/06/05 12:27:03;;;;;;;10.88;4.15;;;;;;;;;;4989037;28;20043;-45
2023/06/05 12:29:34;;;;;;;7.80;3.42;;;;;;;;;;5018583;28;20041;-45
2023/06/05 12:32:02;;;;;;;9.35;4.30;;;;;;;;;;4985011;28;20128;-46
2023/06/05 12:34:39;;;;;;;9.02;4.15;;;;;;;;;;5014450;28;20060;-46
2023/06/05 12:37:27;;;;;;;8.27;4.23;;;;;;;;;;4995079;28;20118;-48
2023/06/05 12:40:08;;;;;;;9.52;4.20;;;;;;;;;;5022566;28;20041;-46
2023/06/05 12:42:36;;;;;;;9.13;4.20;;;;;;;;;;5016752;28;20046;-48
2023/06/05 12:45:06;;;;;;;9.43;5.00;;;;;;;;;;4995918;28;20038;-44
2023/06/05 12:47:34;;;;;;;8.10;4.10;;;;;;;;;;5026871;28;20045;-45
2023/06/05 12:50:07;;;;;;;9.67;4.80;;;;;;;;;;5014329;28;20055;-45
2023/06/05 12:52:35;;;;;;;12.48;5.13;;;;;;;;;;5026430;28;20029;-44
2023/06/05 12:55:03;;;;;;;8.25;4.45;;;;;;;;;;5004307;28;20037;-46
2023/06/05 12:57:31;;;;;;;7.95;4.18;;;;;;;;;;5003807;28;20029;-47
2023/06/05 13:00:00;;;;;;;8.48;4.53;;;;;;;;;;5010261;28;20048;-49
2023/06/05 13:02:31;;;;;;;10.40;4.57;;;;;;;;;;5003819;28;20077;-45
2023/06/05 13:05:00;;;;;;;8.48;4.70;;;;;;;;;;5022923;28;20499;-45
2023/06/05 13:07:27;;;;;;;8.70;4.55;;;;;;;;;;5006614;28;20602;-45
2023/06/05 13:09:55;;;;;;;8.73;4.15;;;;;;;;;;5005275;28;20041;-46
2023/06/05 13:12:25;;;;;;;9.80;4.97;;;;;;;;;;5018037;28;20488;-44
2023/06/05 13:14:53;;;;;;;9.33;4.50;;;;;;;;;;5010904;28;20054;-45
2023/06/05 13:17:22;;;;;;;8.48;4.32;;;;;;;;;;5029426;28;20048;-44
2023/06/05 13:19:54;;;;;;;7.78;4.22;;;;;;;;;;4994961;28;20263;-47
2023/06/05 13:22:24;;;;;;;8.00;4.38;;;;;;;;;;5019415;28;20136;-45
2023/06/05 13:24:52;;;;;;;10.40;4.03;;;;;;;;;;5020470;28;20075;-46
2023/06/05 13:27:20;;;;;;;12.00;3.73;;;;;;;;;;5007535;28;20048;-45
2023/06/05 13:29:48;;;;;;;8.27;3.78;;;;;;;;;;5030241;28;20045;-45
2023/06/05 13:32:16;;;;;;;7.60;4.10;;;;;;;;;;5017299;28;20116;-47
2023/06/05 13:34:44;;;;;;;8.30;3.90;;;;;;;;;;5012319;28;20467;-47
2023/06/05 13:37:13;;;;;;;9.55;4.00;;;;;;;;;;5026418;28;20048;-50
2023/06/05 13:39:41;;;;;;;8.40;4.53;;;;;;;;;;5017507;28;20041;-44
2023/06/05 13:42:11;;;;;;;9.63;4.72;;;;;;;;;;5032400;28;20136;-46
2023/06/05 13:44:39;;;;;;;9.65;4.30;;;;;;;;;;5003810;28;20064;-49
2023/06/05 13:47:09;;;;;;;7.85;4.53;;;;;;;;;;5024942;28;20486;-48
2023/06/05 13:49:37;;;;;;;8.65;3.92;;;;;;;;;;5014336;28;20037;-48
2023/06/05 13:52:06;;;;;;;7.57;4.00;;;;;;;;;;5018116;28;20043;-47
2023/06/05 13:54:35;;;;;;;7.53;4.03;;;;;;;;;;5017904;28;20049;-45
2023/06/05 13:57:03;;;;;;;7.80;4.40;;;;;;;;;;5021349;28;20157;-44
2023/06/05 13:59:30;;;;;;;9.45;5.22;;;;;;;;;;4987930;28;21034;-48
2023/06/05 14:01:58;;;;;;;8.70;4.63;;;;;;;;;;5028475;28;20048;-44
2023/06/05 14:04:26;;;;;;;11.60;4.77;;;;;;;;;;5016697;28;20049;-46
2023/06/05 14:06:54;;;;;;;7.88;3.95;;;;;;;;;;5012752;28;20057;-46
2023/06/05 14:09:25;;;;;;;8.63;4.07;;;;;;;;;;5026436;28;20051;-49
2023/06/05 14:11:54;;;;;;;11.50;3.85;;;;;;;;;;5010979;28;20072;-44
2023/06/05 14:14:22;;;;;;;7.88;3.97;;;;;;;;;;5018921;28;20033;-44
2023/06/05 14:16:50;;;;;;;8.73;3.70;;;;;;;;;;5029747;28;20041;-45
2023/06/05 14:19:18;;;;;;;7.68;4.13;;;;;;;;;;5015553;28;20073;-45
2023/06/05 14:21:46;;;;;;;7.00;3.60;;;;;;;;;;5028240;28;20025;-46
2023/06/05 14:24:14;;;;;;;9.90;3.55;;;;;;;;;;5004237;28;20037;-44
2023/06/05 14:26:42;;;;;;;9.27;3.85;;;;;;;;;;5021468;28;20044;-46
2023/06/05 14:29:11;;;;;;;9.07;4.50;;;;;;;;;;5016788;28;20041;-46
2023/06/05 14:31:38;;;;;;;9.15;4.30;;;;;;;;;;5005531;28;20414;-47
2023/06/05 14:34:09;;;;;;;8.13;4.00;;;;;;;;;;5017806;28;20045;-45
2023/06/05 14:36:37;;;;;;;9.85;4.20;;;;;;;;;;5015277;28;20041;-46
2023/06/05 14:39:04;;;;;;;8.43;4.07;;;;;;;;;;5001939;28;20041;-46
2023/06/05 14:41:32;;;;;;;10.83;4.20;;;;;;;;;;5026115;28;20029;-45
2023/06/05 14:44:00;;;;;;;7.32;3.88;;;;;;;;;;5004770;28;20333;-45
2023/06/05 14:46:49;;;;;;;7.32;4.15;;;;;;;;;;5005764;28;20057;-44
2023/06/05 14:49:18;;;;;;;8.77;4.13;;;;;;;;;;5017160;28;20044;-44